createdAt,value
2023-02-03T00:00:25.454Z,100750.75
2023-02-03T00:03:14.033Z,100743.05
2023-02-03T00:05:43.320Z,100736.12
2023-02-03T00:08:12.923Z,100728.88
2023-02-03T00:10:42.219Z,100722.89
2023-02-03T00:13:15.339Z,100712.58
2023-02-03T00:15:49.583Z,100704.10
2023-02-03T00:18:18.159Z,100702.02
2023-02-03T00:20:48.363Z,100698.04
2023-02-03T00:23:16.734Z,100690.25
2023-02-03T00:25:45.350Z,100680.61
2023-02-03T00:28:13.848Z,100673.88
2023-02-03T00:30:42.140Z,100665.73
2023-02-03T00:33:11.097Z,100651.57
2023-02-03T00:35:40.352Z,100642.92
2023-02-03T00:38:08.695Z,100632.65
2023-02-03T00:40:36.908Z,100627.92
2023-02-03T00:43:05.141Z,100618.55
2023-02-03T00:45:33.389Z,100617.28
2023-02-03T00:48:01.745Z,100611.52
2023-02-03T00:50:30.066Z,100608.36
2023-02-03T00:56:33.933Z,100587.84
2023-02-03T00:59:02.303Z,100597.16
2023-02-03T01:01:33.502Z,100601.58
2023-02-03T01:04:02.135Z,100609.92
2023-02-03T01:06:30.558Z,100610.43
2023-02-03T01:08:58.800Z,100608.04
2023-02-03T01:11:28.407Z,100595.89
2023-02-03T01:13:59.473Z,100590.15
2023-02-03T01:16:30.689Z,100584.76
2023-02-03T01:18:58.887Z,100581.92
2023-02-03T01:21:28.128Z,100585.36
2023-02-03T01:23:56.580Z,100578.98
2023-02-03T01:26:25.015Z,100576.27
2023-02-03T01:28:54.465Z,100566.21
2023-02-03T01:31:35.113Z,100562.70
2023-02-03T01:34:04.100Z,100560.20
2023-02-03T01:36:34.622Z,100552.38
2023-02-03T01:39:04.582Z,100541.58
2023-02-03T01:41:34.152Z,100531.92
2023-02-03T01:44:03.241Z,100518.60
2023-02-03T01:47:01.061Z,100506.35
2023-02-03T01:49:36.647Z,100494.95
2023-02-03T01:52:05.858Z,100486.51
2023-02-03T01:54:39.623Z,100487.61
2023-02-03T01:57:20.196Z,100484.81
2023-02-03T01:59:49.738Z,100489.47
2023-02-03T02:02:18.363Z,100488.55
2023-02-03T02:04:57.470Z,100487.60
2023-02-03T02:07:26.413Z,100477.41
2023-02-03T02:09:56.557Z,100466.64
2023-02-03T02:12:24.765Z,100461.13
2023-02-03T02:14:53.656Z,100457.36
2023-02-03T02:17:40.097Z,100449.48
2023-02-03T02:20:30.989Z,100448.62
2023-02-03T02:23:30.147Z,100445.14
2023-02-03T02:26:27.498Z,100437.01
2023-02-03T02:29:24.555Z,100426.48
2023-02-03T02:32:13.973Z,100416.12
2023-02-03T02:35:10.441Z,100407.88
2023-02-03T02:37:48.234Z,100397.31
2023-02-03T02:40:22.446Z,100386.98
2023-02-03T02:42:59.871Z,100377.79
2023-02-03T02:45:32.641Z,100371.44
2023-02-03T02:48:15.641Z,100355.75
2023-02-03T02:50:46.898Z,100354.91
2023-02-03T02:53:16.829Z,100351.16
2023-02-03T02:55:47.332Z,100346.17
2023-02-03T02:58:19.414Z,100344.05
2023-02-03T03:00:48.573Z,100337.96
2023-02-03T03:03:20.183Z,100339.67
2023-02-03T03:05:56.239Z,100340.80
2023-02-03T03:08:33.996Z,100334.44
2023-02-03T03:11:03.589Z,100338.91
2023-02-03T03:13:42.184Z,100337.48
2023-02-03T03:16:12.688Z,100329.66
2023-02-03T03:18:55.686Z,100326.00
2023-02-03T03:21:28.970Z,100325.94
2023-02-03T03:24:01.799Z,100324.10
2023-02-03T03:26:42.624Z,100317.19
2023-02-03T03:29:26.300Z,100314.43
2023-02-03T03:31:54.747Z,100308.55
2023-02-03T03:34:23.178Z,100301.66
2023-02-03T03:37:03.186Z,100294.61
2023-02-03T03:39:57.681Z,100296.89
2023-02-03T03:42:47.509Z,100284.18
2023-02-03T03:45:28.441Z,100277.73
2023-02-03T03:48:11.004Z,100269.95
2023-02-03T03:50:45.390Z,100265.48
2023-02-03T03:53:17.437Z,100252.38
2023-02-03T03:55:54.365Z,100246.45
2023-02-03T03:58:30.242Z,100243.08
2023-02-03T04:01:01.614Z,100241.95
2023-02-03T04:03:46.011Z,100244.38
2023-02-03T04:06:14.697Z,100242.17
2023-02-03T04:08:54.082Z,100234.59
2023-02-03T04:11:40.875Z,100221.82
2023-02-03T04:14:09.100Z,100216.64
2023-02-03T04:16:37.399Z,100210.10
2023-02-03T04:19:08.325Z,100202.55
2023-02-03T04:21:36.757Z,100191.41
2023-02-03T04:24:05.249Z,100186.39
2023-02-03T04:26:33.508Z,100183.67
2023-02-03T04:29:01.672Z,100182.92
2023-02-03T04:31:30.241Z,100177.10
2023-02-03T04:33:58.626Z,100167.94
2023-02-03T04:36:26.812Z,100161.27
2023-02-03T04:38:55.020Z,100163.41
2023-02-03T04:41:23.377Z,100162.98
2023-02-03T04:43:51.728Z,100160.44
2023-02-03T04:46:20.940Z,100158.91
2023-02-03T04:48:49.252Z,100147.59
2023-02-03T04:51:17.450Z,100138.61
2023-02-03T04:53:45.603Z,100131.52
2023-02-03T04:56:15.777Z,100124.83
2023-02-03T04:58:44.103Z,100115.05
2023-02-03T05:01:12.441Z,100109.24
2023-02-03T05:03:40.826Z,100105.86
2023-02-03T05:06:09.180Z,100096.05
2023-02-03T05:08:37.331Z,100086.60
2023-02-03T05:11:06.657Z,100075.05
2023-02-03T05:13:35.097Z,100072.67
2023-02-03T05:16:03.310Z,100058.23
2023-02-03T05:18:31.841Z,100046.04
2023-02-03T05:21:00.006Z,100041.23
2023-02-03T05:23:29.825Z,100030.67
2023-02-03T05:25:58.222Z,100027.80
2023-02-03T05:28:34.047Z,100021.20
2023-02-03T05:31:03.251Z,100008.72
2023-02-03T05:33:34.826Z,100002.11
2023-02-03T05:36:03.401Z,99993.94
2023-02-03T05:38:31.568Z,99981.72
2023-02-03T05:41:18.432Z,99970.80
2023-02-03T05:43:46.642Z,99965.38
2023-02-03T05:46:14.881Z,99950.42
2023-02-03T05:48:43.132Z,99939.75
2023-02-03T05:51:11.403Z,99930.82
2023-02-03T05:53:39.594Z,99922.42
2023-02-03T05:56:08.616Z,99913.38
2023-02-03T05:58:36.879Z,99900.75
2023-02-03T06:01:05.172Z,99886.69
2023-02-03T06:03:33.367Z,99871.89
2023-02-03T06:06:01.813Z,99867.41
2023-02-03T06:08:29.985Z,99860.48
2023-02-03T06:11:00.108Z,99850.27
2023-02-03T06:13:28.522Z,99842.33
2023-02-03T06:15:56.844Z,99834.60
2023-02-03T06:18:25.054Z,99822.35
2023-02-03T06:20:53.689Z,99815.48
2023-02-03T06:23:21.971Z,99801.36
2023-02-03T06:25:51.557Z,99791.88
2023-02-03T06:28:20.328Z,99786.23
2023-02-03T06:30:53.375Z,99778.78
2023-02-03T06:33:22.053Z,99767.54
2023-02-03T06:35:50.316Z,99766.66
2023-02-03T06:38:18.477Z,99756.37
2023-02-03T06:40:48.109Z,99752.97
2023-02-03T06:43:17.232Z,99739.36
2023-02-03T06:45:47.474Z,99719.78
2023-02-03T06:48:15.816Z,99709.85
2023-02-03T06:50:48.299Z,99698.33
2023-02-03T06:53:17.873Z,99690.95
2023-02-03T06:55:48.113Z,99673.59
2023-02-03T06:58:16.480Z,99662.26
2023-02-03T07:00:44.638Z,99658.88
2023-02-03T07:03:12.841Z,99646.64
2023-02-03T07:05:41.183Z,99639.37
2023-02-03T07:08:09.333Z,99635.34
2023-02-03T07:10:37.504Z,99626.89
2023-02-03T07:13:06.951Z,99609.17
2023-02-03T07:15:35.890Z,99600.98
2023-02-03T07:18:04.305Z,99594.29
2023-02-03T07:20:33.234Z,99578.23
2023-02-03T07:23:01.453Z,99566.35
2023-02-03T07:25:30.962Z,99562.02
2023-02-03T07:27:59.305Z,99554.33
2023-02-03T07:30:27.861Z,99542.46
2023-02-03T07:32:56.291Z,99538.39
2023-02-03T07:35:25.629Z,99528.23
2023-02-03T07:37:54.199Z,99520.77
2023-02-03T07:40:22.494Z,99514.05
2023-02-03T07:42:50.827Z,99501.86
2023-02-03T07:45:19.766Z,99496.53
2023-02-03T07:47:47.945Z,99490.36
2023-02-03T07:50:16.287Z,99480.92
2023-02-03T07:52:44.602Z,99464.55
2023-02-03T07:55:12.779Z,99444.94
2023-02-03T07:57:43.733Z,99445.77
2023-02-03T08:00:14.321Z,99441.10
2023-02-03T08:02:43.981Z,99430.98
2023-02-03T08:05:13.478Z,99416.73
2023-02-03T08:07:42.531Z,99419.38
2023-02-03T08:10:12.617Z,99410.08
2023-02-03T08:12:44.877Z,99393.33
2023-02-03T08:15:14.494Z,99383.46
2023-02-03T08:17:44.695Z,99386.91
2023-02-03T08:20:13.298Z,99379.38
2023-02-03T08:22:41.543Z,99370.48
2023-02-03T08:25:10.766Z,99357.63
2023-02-03T08:27:39.541Z,99362.65
2023-02-03T08:30:11.834Z,99356.73
2023-02-03T08:32:40.117Z,99347.92
2023-02-03T08:35:08.585Z,99334.89
2023-02-03T08:37:36.909Z,99324.05
2023-02-03T08:40:06.625Z,99311.02
2023-02-03T08:42:34.896Z,99297.95
2023-02-03T08:45:05.266Z,99291.59
2023-02-03T08:47:33.875Z,99292.98
2023-02-03T08:50:02.191Z,99291.11
2023-02-03T08:52:30.460Z,99289.61
2023-02-03T08:54:58.731Z,99276.90
2023-02-03T08:57:27.136Z,99266.40
2023-02-03T08:59:55.467Z,99261.28
2023-02-03T09:02:23.729Z,99252.66
2023-02-03T09:04:52.313Z,99233.16
2023-02-03T09:07:20.752Z,99226.46
2023-02-03T09:09:49.006Z,99214.98
2023-02-03T09:12:17.578Z,99212.23
2023-02-03T09:14:45.989Z,99198.33
2023-02-03T09:17:14.222Z,99187.04
2023-02-03T09:19:42.690Z,99181.38
2023-02-03T09:22:11.023Z,99180.00
2023-02-03T09:24:39.454Z,99176.39
2023-02-03T09:27:07.818Z,99168.14
2023-02-03T09:29:36.082Z,99152.98
2023-02-03T09:32:08.108Z,99151.97
2023-02-03T09:34:37.173Z,99141.67
2023-02-03T09:37:05.692Z,99138.98
2023-02-03T09:39:33.987Z,99135.42
2023-02-03T09:42:26.009Z,99125.16
2023-02-03T09:45:17.488Z,99126.89
2023-02-03T09:47:45.873Z,99118.79
2023-02-03T09:50:25.314Z,99113.13
2023-02-03T09:52:55.967Z,99102.27
2023-02-03T09:55:44.521Z,99094.36
2023-02-03T09:58:19.776Z,99092.88
2023-02-03T10:00:55.457Z,99089.13
2023-02-03T10:03:48.982Z,99080.36
2023-02-03T10:06:31.798Z,99062.76
2023-02-03T10:09:31.053Z,99063.33
2023-02-03T10:12:27.149Z,99051.35
2023-02-03T10:15:19.605Z,99047.48
2023-02-03T10:17:55.322Z,99040.45
2023-02-03T10:20:37.032Z,99021.17
2023-02-03T10:23:14.035Z,99034.30
2023-02-03T10:25:57.546Z,99034.70
2023-02-03T10:28:30.948Z,99024.56
2023-02-03T10:31:01.968Z,99010.11
2023-02-03T10:33:32.578Z,98996.34
2023-02-03T10:36:04.064Z,98995.52
2023-02-03T10:38:47.097Z,98999.55
2023-02-03T10:41:18.216Z,99003.39
2023-02-03T10:43:52.095Z,98996.89
2023-02-03T10:46:33.757Z,98998.67
2023-02-03T10:49:02.504Z,98998.71
2023-02-03T10:51:52.168Z,98989.60
2023-02-03T10:54:38.444Z,98987.93
2023-02-03T10:57:16.176Z,98991.45
2023-02-03T10:59:48.067Z,98984.60
2023-02-03T11:02:26.111Z,98983.12
2023-02-03T11:05:16.463Z,98981.77
2023-02-03T11:07:45.330Z,98976.13
2023-02-03T11:10:27.142Z,98978.25
2023-02-03T11:13:20.603Z,98978.48
2023-02-03T11:15:51.556Z,98971.45
2023-02-03T11:18:34.278Z,98965.29
2023-02-03T11:21:09.324Z,98956.00
2023-02-03T11:23:45.188Z,98957.09
2023-02-03T11:26:16.365Z,98965.27
2023-02-03T11:28:48.080Z,98965.33
2023-02-03T11:31:25.598Z,98967.80
2023-02-03T11:33:57.992Z,98966.13
2023-02-03T11:36:28.157Z,98968.07
2023-02-03T11:39:24.188Z,98973.81
2023-02-03T11:41:53.458Z,98969.52
2023-02-03T11:44:29.623Z,98967.30
2023-02-03T11:47:04.285Z,98964.23
2023-02-03T11:49:32.595Z,98967.70
2023-02-03T11:52:33.249Z,98968.28
2023-02-03T11:55:33.989Z,98965.91
2023-02-03T11:58:19.280Z,98969.92
2023-02-03T12:01:05.497Z,98964.79
2023-02-03T12:03:42.605Z,98966.77
2023-02-03T12:06:23.111Z,98969.06
2023-02-03T12:09:00.085Z,98967.75
2023-02-03T12:11:34.604Z,98966.44
2023-02-03T12:14:29.123Z,98970.98
2023-02-03T12:17:23.613Z,98980.90
2023-02-03T12:20:26.472Z,98972.27
2023-02-03T12:23:06.189Z,98973.88
2023-02-03T12:25:48.030Z,98969.94
2023-02-03T12:28:33.705Z,98970.65
2023-02-03T12:31:09.200Z,98976.73
2023-02-03T12:33:46.603Z,98976.58
2023-02-03T12:36:43.275Z,98976.75
2023-02-03T12:39:34.439Z,98987.98
2023-02-03T12:42:35.367Z,98981.92
2023-02-03T12:45:19.108Z,98984.17
2023-02-03T12:47:58.047Z,98976.55
2023-02-03T12:50:49.151Z,98981.75
2023-02-03T12:53:45.958Z,98980.70
2023-02-03T12:56:18.563Z,98980.02
2023-02-03T12:59:02.549Z,98986.95
2023-02-03T13:01:36.730Z,98988.52
2023-02-03T13:04:29.793Z,98991.83
2023-02-03T13:07:07.405Z,98991.66
2023-02-03T13:09:50.156Z,98992.02
2023-02-03T13:12:41.754Z,98994.27
2023-02-03T13:15:21.324Z,98998.76
2023-02-03T13:17:59.785Z,98997.91
2023-02-03T13:20:36.308Z,98993.77
2023-02-03T13:23:12.766Z,98994.46
2023-02-03T13:26:23.037Z,99002.27
2023-02-03T13:29:16.028Z,99000.19
2023-02-03T13:32:14.346Z,99006.27
2023-02-03T13:35:21.565Z,99011.31
2023-02-03T13:38:17.943Z,99009.59
2023-02-03T13:40:58.752Z,99010.12
2023-02-03T13:43:38.712Z,99016.17
2023-02-03T13:46:25.234Z,99016.15
2023-02-03T13:48:55.952Z,99028.44
2023-02-03T13:51:34.968Z,99028.44
2023-02-03T13:54:09.129Z,99034.15
2023-02-03T13:56:37.603Z,99029.98
2023-02-03T13:59:14.671Z,99042.31
2023-02-03T14:01:43.793Z,99044.58
2023-02-03T14:04:24.512Z,99039.77
2023-02-03T14:06:52.841Z,99043.58
2023-02-03T14:09:40.294Z,99040.31
2023-02-03T14:12:20.642Z,99047.59
2023-02-03T14:14:52.007Z,99053.14
2023-02-03T14:17:35.672Z,99055.92
2023-02-03T14:20:26.150Z,99060.08
2023-02-03T14:23:06.163Z,99056.79
2023-02-03T14:25:59.246Z,99066.69
2023-02-03T14:28:42.293Z,99073.61
2023-02-03T14:31:25.374Z,99072.92
2023-02-03T14:34:09.082Z,99087.81
2023-02-03T14:36:51.995Z,99078.95
2023-02-03T14:39:20.216Z,99083.98
2023-02-03T14:42:04.037Z,99083.45
2023-02-03T14:44:41.617Z,99082.23
2023-02-03T14:47:12.629Z,99086.39
2023-02-03T14:49:58.985Z,99092.27
2023-02-03T14:52:42.698Z,99089.66
2023-02-03T14:55:38.533Z,99097.29
2023-02-03T14:58:32.239Z,99094.34
2023-02-03T15:01:05.397Z,99092.23
2023-02-03T15:03:35.601Z,99098.81
2023-02-03T15:06:06.051Z,99095.89
2023-02-03T15:08:45.145Z,99101.45
2023-02-03T15:11:27.227Z,99096.41
2023-02-03T15:13:58.007Z,99095.02
2023-02-03T15:16:27.354Z,99091.55
2023-02-03T15:19:03.031Z,99094.83
2023-02-03T15:21:31.326Z,99093.11
2023-02-03T15:23:59.830Z,99102.28
2023-02-03T15:26:29.658Z,99104.54
2023-02-03T15:29:04.967Z,99108.67
2023-02-03T15:31:50.569Z,99112.80
2023-02-03T15:34:49.588Z,99113.66
2023-02-03T15:37:40.469Z,99117.27
2023-02-03T15:40:21.833Z,99123.15
2023-02-03T15:42:59.425Z,99124.70
2023-02-03T15:45:40.153Z,99125.40
2023-02-03T15:48:22.238Z,99129.20
2023-02-03T15:51:19.535Z,99127.27
2023-02-03T15:53:56.389Z,99129.02
2023-02-03T15:56:28.723Z,99128.34
2023-02-03T15:58:59.068Z,99135.42
2023-02-03T16:01:28.511Z,99139.02
2023-02-03T16:03:59.414Z,99139.68
2023-02-03T16:06:40.651Z,99141.92
2023-02-03T16:09:28.099Z,99138.62
2023-02-03T16:12:21.655Z,99149.84
2023-02-03T16:14:50.833Z,99161.94
2023-02-03T16:17:35.035Z,99171.29
2023-02-03T16:20:12.266Z,99175.94
2023-02-03T16:22:44.500Z,99176.07
2023-02-03T16:25:22.810Z,99179.16
2023-02-03T16:28:23.021Z,99177.95
2023-02-03T16:31:19.841Z,99185.21
2023-02-03T16:34:09.516Z,99188.17
2023-02-03T16:37:03.065Z,99192.99
2023-02-03T16:39:50.000Z,99196.60
2023-02-03T16:42:40.371Z,99200.25
2023-02-03T16:45:36.569Z,99200.92
2023-02-03T16:48:23.944Z,99208.40
2023-02-03T16:50:58.301Z,99212.95
2023-02-03T16:53:33.516Z,99217.30
2023-02-03T16:56:04.665Z,99214.02
2023-02-03T16:58:33.493Z,99223.35
2023-02-03T17:01:05.783Z,99229.52
2023-02-03T17:03:36.344Z,99226.67
2023-02-03T17:06:08.549Z,99236.13
2023-02-03T17:08:38.629Z,99239.23
2023-02-03T17:11:16.010Z,99243.21
2023-02-03T17:13:45.413Z,99244.05
2023-02-03T17:16:17.494Z,99245.73
2023-02-03T17:18:46.799Z,99251.05
2023-02-03T17:21:20.352Z,99256.02
2023-02-03T17:23:49.065Z,99257.35
2023-02-03T17:26:18.087Z,99260.10
2023-02-03T17:28:46.395Z,99263.70
2023-02-03T17:31:18.287Z,99261.45
2023-02-03T17:33:50.748Z,99259.70
2023-02-03T17:36:22.555Z,99261.75
2023-02-03T17:55:33.317Z,99272.55
2023-02-03T17:58:02.325Z,99278.45
2023-02-03T18:00:30.926Z,99281.22
2023-02-03T18:03:00.030Z,99289.39
2023-02-03T18:05:29.592Z,99293.20
2023-02-03T18:08:00.915Z,99297.86
2023-02-03T18:10:34.441Z,99291.08
2023-02-03T18:13:02.798Z,99297.63
2023-02-03T18:15:31.239Z,99294.48
2023-02-03T18:17:59.588Z,99295.04
2023-02-03T18:20:28.144Z,99293.86
2023-02-03T18:22:56.837Z,99299.42
2023-02-03T18:25:25.102Z,99302.77
2023-02-03T18:27:53.383Z,99305.73
2023-02-03T18:30:21.915Z,99308.20
2023-02-03T18:32:53.795Z,99309.28
2023-02-03T18:35:22.275Z,99314.48
2023-02-03T18:37:51.931Z,99318.63
2023-02-03T18:40:20.817Z,99330.23
2023-02-03T18:42:49.508Z,99327.61
2023-02-03T18:45:17.740Z,99331.05
2023-02-03T18:47:45.975Z,99332.77
2023-02-03T18:50:14.338Z,99328.48
2023-02-03T18:52:42.742Z,99327.29
2023-02-03T18:55:11.089Z,99332.81
2023-02-03T18:57:40.129Z,99335.45
2023-02-03T19:00:09.387Z,99339.09
2023-02-03T19:02:37.641Z,99347.20
2023-02-03T19:05:06.892Z,99355.59
2023-02-03T19:07:35.699Z,99364.14
2023-02-03T19:10:04.164Z,99370.63
2023-02-03T19:12:32.401Z,99381.58
2023-02-03T19:15:00.712Z,99387.34
2023-02-03T19:17:30.100Z,99382.23
2023-02-03T19:19:58.346Z,99392.70
2023-02-03T19:22:26.581Z,99396.24
2023-02-03T19:24:56.030Z,99401.56
2023-02-03T19:27:25.240Z,99412.54
2023-02-03T19:29:53.682Z,99408.20
2023-02-03T19:32:21.925Z,99407.85
2023-02-03T19:34:50.254Z,99405.61
2023-02-03T19:37:18.710Z,99422.36
2023-02-03T19:39:50.560Z,99427.44
2023-02-03T19:42:18.852Z,99434.20
2023-02-03T19:44:47.140Z,99449.13
2023-02-03T19:47:15.654Z,99443.46
2023-02-03T19:49:43.932Z,99438.95
2023-02-03T19:52:12.793Z,99443.38
2023-02-03T19:54:41.119Z,99454.93
2023-02-03T19:57:09.343Z,99462.76
2023-02-03T19:59:37.581Z,99471.91
2023-02-03T20:02:13.694Z,99475.16
2023-02-03T20:04:44.385Z,99481.40
2023-02-03T20:07:14.169Z,99476.60
2023-02-03T20:09:42.876Z,99485.13
2023-02-03T20:12:11.980Z,99500.05
2023-02-03T20:14:40.422Z,99511.83
2023-02-03T20:17:08.714Z,99535.21
2023-02-03T20:19:36.991Z,99550.55
2023-02-03T20:22:05.375Z,99562.20
2023-02-03T20:24:36.746Z,99573.19
2023-02-03T20:27:05.329Z,99578.76
2023-02-03T20:29:33.584Z,99598.66
2023-02-03T20:32:01.922Z,99610.73
2023-02-03T20:34:30.611Z,99625.77
2023-02-03T20:37:00.934Z,99637.32
2023-02-03T20:39:29.289Z,99646.80
2023-02-03T20:41:57.536Z,99651.73
2023-02-03T20:44:25.892Z,99654.22
2023-02-03T20:46:56.034Z,99658.25
2023-02-03T20:49:24.746Z,99682.08
2023-02-03T20:51:53.124Z,99697.43
2023-02-03T20:54:22.896Z,99703.51
2023-02-03T20:56:51.158Z,99720.59
2023-02-03T20:59:20.228Z,99742.17
2023-02-03T21:01:49.465Z,99766.49
2023-02-03T21:04:38.450Z,99788.31
2023-02-03T21:07:14.928Z,99802.90
2023-02-03T21:09:43.223Z,99822.97
2023-02-03T21:12:13.261Z,99839.96
2023-02-03T21:14:42.834Z,99853.64
2023-02-03T21:17:21.050Z,99876.91
2023-02-03T21:19:50.678Z,99893.67
2023-02-03T21:22:27.286Z,99902.94
2023-02-03T21:24:57.995Z,99906.23
2023-02-03T21:27:28.782Z,99915.45
2023-02-03T21:29:59.386Z,99926.59
2023-02-03T21:32:47.838Z,99944.35
2023-02-03T21:35:37.473Z,99956.87
2023-02-03T21:38:24.738Z,99966.81
2023-02-03T21:40:52.999Z,99982.14
2023-02-03T21:43:24.331Z,99987.88
2023-02-03T21:45:52.808Z,100004.06
2023-02-03T21:58:09.107Z,100081.59
2023-02-03T22:00:43.488Z,100100.91
2023-02-03T22:03:35.721Z,100114.58
2023-02-03T22:06:10.170Z,100130.15
2023-02-03T22:08:40.962Z,100148.03
2023-02-03T22:11:09.982Z,100158.23
2023-02-03T22:13:38.352Z,100168.95
2023-02-03T22:16:07.626Z,100173.63
2023-02-03T22:18:36.535Z,100177.12
2023-02-03T22:21:04.917Z,100181.95
2023-02-03T22:23:34.000Z,100190.90
2023-02-03T22:26:02.268Z,100203.14
2023-02-03T22:28:30.554Z,100221.11
2023-02-03T22:30:58.837Z,100222.86
2023-02-03T22:33:27.200Z,100242.71
2023-02-03T22:35:55.582Z,100257.58
2023-02-03T22:38:23.813Z,100283.02
2023-02-03T22:40:52.972Z,100296.17
2023-02-03T22:43:21.276Z,100305.49
2023-02-03T22:45:49.638Z,100314.45
2023-02-03T22:48:18.020Z,100331.48
2023-02-03T22:50:46.273Z,100349.16
2023-02-03T22:53:14.945Z,100365.30
2023-02-03T22:55:43.259Z,100381.21
2023-02-03T22:58:11.721Z,100393.61
2023-02-03T23:00:40.056Z,100402.13
2023-02-03T23:03:08.782Z,100422.98
2023-02-03T23:05:36.959Z,100427.42
2023-02-03T23:08:05.224Z,100433.20
2023-02-03T23:10:33.845Z,100443.27
2023-02-03T23:13:02.573Z,100456.08
2023-02-03T23:15:33.809Z,100473.19
2023-02-03T23:18:02.135Z,100487.57
2023-02-03T23:20:30.675Z,100503.48
2023-02-03T23:22:59.075Z,100509.66
2023-02-03T23:25:27.581Z,100523.34
2023-02-03T23:27:55.921Z,100532.19
2023-02-03T23:30:24.143Z,100541.94
2023-02-03T23:41:48.326Z,100591.36
2023-02-03T23:44:16.659Z,100602.98
2023-02-03T23:46:45.396Z,100614.26
2023-02-03T23:49:13.734Z,100622.09
2023-02-03T23:51:42.560Z,100635.77
2023-02-03T23:54:11.328Z,100653.09
2023-02-03T23:56:39.592Z,100658.88
2023-02-03T23:59:07.848Z,100668.85
